Lake City, MN (55041)

6:59 AM CST on December 26, 2014 (GMT -0600)
APRSWXNET Lake City MN US | Change Station
CLOSE
Current Station
Personal Weather Station
Location: Lake City, MN
Elevation: 692 ft
Nearby Weather Stations
Active Advisory: Winter Weather Advisory

Elev 692 ft 44.45 °N, 92.27 °W | Updated 37 minutes ago

Overcast
Overcast
32 °F
Feels Like 32 °F
N
0
Wind Variable Wind from SE
Gusts 1.0 mph

Today
High -- | Low -- °F
--% Chance of Precip.
Yesterday
High -- | Low -- °F
Precip. -- in
7:44 AM 4:35 PM
Waxing Crescent, 25% visible
Pressure 29.90 in
Visibility 7.0 miles
Clouds Scattered Clouds 1000 ft
Overcast 7000 ft
Windchill 32 °F
Dew Point 30 °F
Humidity 94%
Rainfall 0.00 in
Snow Depth Not available.
UV 0 out of 12
Pollen .10 out of 12
Air Quality Not available.
Flu Activity Not available.
METAR KRGK 261251Z AUTO 04003KT 7SM SCT010 OVC070 01/M01 A2990 RMK AO2

More Conditions Fewer Conditions

Pressure 29.90 in
Visibility 7.0 miles
Clouds Scattered Clouds 1000 ft
Overcast 7000 ft
Windchill 32 °F
Dew Point 30 °F
Humidity 94%
Rainfall 0.00 in
Snow Depth Not available.
UV 0 out of 12
Pollen .10 out of 12
Air Quality Not available.
Flu Activity Not available.
METAR KRGK 261251Z AUTO 04003KT 7SM SCT010 OVC070 01/M01 A2990 RMK AO2

More Conditions Fewer Conditions

10-Day Weather Forecast

Almanac

Astronomy

Dec. 26, 2014 Rise Set
Actual Time
Civil Twilight
Nautical Twilight
Astronomical Twilight
Moon
Length of Visible Light
Length of Day
Tomorrow will be .
, % of the Moon is Illuminated

Today's Extremes

State Highs State Lows

Community

WunderPhotos

Upload Photos

1,780,588 photos uploaded!

WunderBlogs® & News

Nearby

Air Quality

  Air Quality AQ Index Pollutant
Not available.

Snow Depth

Station Depth Elevation

Earthquake Activity

City Distance Mag. Time & Date
Minimum magnitude displayed is 2.5.

Coastal Water Temperatures

Place Temperature

Nearby Weather Stations